PWSweather.com
Personal Weather Stations
Station Observations

OlomoucCZ

Lat: 49.5936202181, Lon: 17.2276005149

Elevation: 752

Station Type: Davis Vantage Pro 2 Activ

http://infopocasi-olomouc.cz

High Low Average
Temperature 36.8°F2.7°F 29.0°F-1.7°F 33.2°F0.7°F
Dew Point 33.1°F0.6°F 27.7°F-2.4°F 30.6°F-0.8°F
Winds 12.7 mph W20.4 mph W Calm Calm 5.0 mph 8.0 mph
Wind Gusts 17.3 mph27.8 mph -- 6.9 mph11.1 mph
Humidity 96% 79% 90%
Pressure 29.66 in1004.40 in 29.39 in995.30 in -
Precipitation 0.00 in0.00 in - -
Hour Temp Dew Point Humidity Winds Wind Gusts Pressure Precip Precip Rate Daily Precip Total
12:00 AM 30.8°F-0.7°C 29.8°F-1.2°C 96% 9.2 mph SSE14.8 kmh SSE 12.7 mph20.4 kmh 29.43 in996.6 mb - 0.00 in0.0 mm 0.00 in0.0 mm
12:30 AM 31.5°F-0.3°C 30.2°F-1.0°C 95% 6.9 mph SE11.1 kmh SE 10.4 mph16.7 kmh 29.41 in995.9 mb - 0.00 in0.0 mm 0.00 in0.0 mm
01:00 AM 32.0°F0.0°C 30.5°F-0.8°C 94% 4.6 mph SE7.4 kmh SE 4.6 mph7.4 kmh 29.41 in995.9 mb - 0.00 in0.0 mm 0.00 in0.0 mm
01:30 AM 33.0°F0.6°C 31.4°F-0.3°C 94% 9.2 mph SE14.8 kmh SE 10.4 mph16.7 kmh 29.41 in995.9 mb - 0.00 in0.0 mm 0.00 in0.0 mm
02:00 AM 33.4°F0.8°C 31.6°F-0.2°C 93% 4.6 mph S7.4 kmh S 8.1 mph13.0 kmh 29.42 in996.3 mb - 0.00 in0.0 mm 0.00 in0.0 mm
02:30 AM 34.3°F1.3°C 32.2°F0.1°C 92% 4.6 mph S7.4 kmh S 5.8 mph9.3 kmh 29.41 in995.9 mb - 0.00 in0.0 mm 0.00 in0.0 mm
03:00 AM 33.2°F0.7°C 31.2°F-0.4°C 92% 4.6 mph SW7.4 kmh SW 5.8 mph9.3 kmh 29.40 in995.6 mb - 0.00 in0.0 mm 0.00 in0.0 mm
03:30 AM 33.6°F0.9°C 31.0°F-0.6°C 90% 5.8 mph SW9.3 kmh SW 6.9 mph11.1 kmh 29.41 in995.9 mb - 0.00 in0.0 mm 0.00 in0.0 mm
04:00 AM 32.8°F0.4°C 30.5°F-0.8°C 91% 1.2 mph WSW1.9 kmh WSW 2.3 mph3.7 kmh 29.41 in995.9 mb - 0.00 in0.0 mm 0.00 in0.0 mm
04:30 AM 32.8°F0.4°C 30.5°F-0.8°C 91% 6.9 mph SE11.1 kmh SE 8.1 mph13.0 kmh 29.41 in995.9 mb - 0.00 in0.0 mm 0.00 in0.0 mm
05:00 AM 32.8°F0.4°C 30.5°F-0.8°C 91% 6.9 mph SSE11.1 kmh SSE 8.1 mph13.0 kmh 29.41 in995.9 mb - 0.00 in0.0 mm 0.00 in0.0 mm
05:30 AM 32.9°F0.5°C 30.8°F-0.7°C 92% 5.8 mph SSE9.3 kmh SSE 6.9 mph11.1 kmh 29.41 in995.9 mb - 0.00 in0.0 mm 0.00 in0.0 mm
06:00 AM 32.2°F0.1°C 29.9°F-1.2°C 91% 4.6 mph S7.4 kmh S 5.8 mph9.3 kmh 29.40 in995.6 mb - 0.00 in0.0 mm 0.00 in0.0 mm
06:30 AM 30.6°F-0.8°C 28.8°F-1.8°C 93% 2.3 mph SE3.7 kmh SE 3.5 mph5.6 kmh 29.40 in995.6 mb - 0.00 in0.0 mm 0.00 in0.0 mm
07:00 AM 30.5°F-0.8°C 29.0°F-1.7°C 94% 2.3 mph ESE3.7 kmh ESE 3.5 mph5.6 kmh 29.40 in995.6 mb - 0.00 in0.0 mm 0.00 in0.0 mm
07:30 AM 31.0°F-0.6°C 29.8°F-1.2°C 95% 6.9 mph SSE11.1 kmh SSE 9.2 mph14.8 kmh 29.39 in995.3 mb - 0.00 in0.0 mm 0.00 in0.0 mm
08:00 AM 29.0°F-1.7°C 27.7°F-2.4°C 95% 1.2 mph SSW1.9 kmh SSW 2.3 mph3.7 kmh 29.40 in995.6 mb - 0.00 in0.0 mm 0.00 in0.0 mm
08:30 AM 29.2°F-1.6°C 28.2°F-2.1°C 96% 1.2 mph SW1.9 kmh SW 3.5 mph5.6 kmh 29.40 in995.6 mb - 0.00 in0.0 mm 0.00 in0.0 mm
09:00 AM 31.1°F-0.5°C 29.8°F-1.2°C 95% 1.2 mph SE1.9 kmh SE 2.3 mph3.7 kmh 29.39 in995.3 mb - 0.00 in0.0 mm 0.00 in0.0 mm
09:30 AM 30.5°F-0.8°C 29.0°F-1.7°C 94% 1.2 mph SE1.9 kmh SE 3.5 mph5.6 kmh 29.40 in995.6 mb - 0.00 in0.0 mm 0.00 in0.0 mm
10:00 AM 31.9°F-0.1°C 30.1°F-1.1°C 93% 2.3 mph E3.7 kmh E 3.5 mph5.6 kmh 29.41 in995.9 mb - 0.00 in0.0 mm 0.00 in0.0 mm
10:30 AM 31.6°F-0.2°C 29.8°F-1.2°C 93% 3.5 mph ENE5.6 kmh ENE 3.5 mph5.6 kmh 29.41 in995.9 mb - 0.00 in0.0 mm 0.00 in0.0 mm
11:00 AM 32.2°F0.1°C 30.4°F-0.9°C 93% 1.2 mph E1.9 kmh E 2.3 mph3.7 kmh 29.41 in995.9 mb - 0.00 in0.0 mm 0.00 in0.0 mm
11:30 AM 33.5°F0.8°C 31.4°F-0.3°C 92% 1.2 mph NNW1.9 kmh NNW 2.3 mph3.7 kmh 29.41 in995.9 mb - 0.00 in0.0 mm 0.00 in0.0 mm
12:00 PM 33.8°F1.0°C 31.7°F-0.2°C 92% 2.3 mph NE3.7 kmh NE 3.5 mph5.6 kmh 29.41 in995.9 mb - 0.00 in0.0 mm 0.00 in0.0 mm
12:30 PM 33.6°F0.9°C 31.8°F-0.1°C 93% 1.2 mph NNE1.9 kmh NNE 2.3 mph3.7 kmh 29.39 in995.3 mb - 0.00 in0.0 mm 0.00 in0.0 mm
01:00 PM 34.0°F1.1°C 31.9°F-0.1°C 92% Calm Calm -- 29.41 in995.9 mb - 0.00 in0.0 mm 0.00 in0.0 mm
01:30 PM 34.7°F1.5°C 32.3°F0.2°C 91% 6.9 mph ESE11.1 kmh ESE 11.5 mph18.5 kmh 29.42 in996.3 mb - 0.00 in0.0 mm 0.00 in0.0 mm
02:00 PM 34.0°F1.1°C 32.2°F0.1°C 93% 3.5 mph ESE5.6 kmh ESE 3.5 mph5.6 kmh 29.43 in996.6 mb - 0.00 in0.0 mm 0.00 in0.0 mm
02:30 PM 34.4°F1.3°C 32.6°F0.3°C 93% 4.6 mph S7.4 kmh S 4.6 mph7.4 kmh 29.44 in997.0 mb - 0.00 in0.0 mm 0.00 in0.0 mm
03:00 PM 35.2°F1.8°C 33.1°F0.6°C 92% Calm Calm 1.2 mph1.9 kmh 29.45 in997.3 mb - 0.00 in0.0 mm 0.00 in0.0 mm
03:30 PM 34.6°F1.4°C 32.8°F0.4°C 93% 4.6 mph NW7.4 kmh NW 4.6 mph7.4 kmh 29.46 in997.6 mb - 0.00 in0.0 mm 0.00 in0.0 mm
04:00 PM 36.6°F2.6°C 32.2°F0.1°C 84% 6.9 mph WNW11.1 kmh WNW 9.2 mph14.8 kmh 29.48 in998.3 mb - 0.00 in0.0 mm 0.00 in0.0 mm
04:30 PM 36.8°F2.7°C 31.8°F-0.1°C 82% 8.1 mph WNW13.0 kmh WNW 10.4 mph16.7 kmh 29.49 in998.6 mb - 0.00 in0.0 mm 0.00 in0.0 mm
05:00 PM 34.7°F1.5°C 31.8°F-0.1°C 89% 10.4 mph W16.7 kmh W 13.8 mph22.2 kmh 29.52 in999.7 mb - 0.00 in0.0 mm 0.00 in0.0 mm
05:30 PM 34.4°F1.3°C 31.2°F-0.4°C 88% 6.9 mph W11.1 kmh W 11.5 mph18.5 kmh 29.53 in1000.0 mb - 0.00 in0.0 mm 0.00 in0.0 mm
06:00 PM 34.8°F1.6°C 31.4°F-0.3°C 87% 10.4 mph W16.7 kmh W 17.3 mph27.8 kmh 29.54 in1000.3 mb - 0.00 in0.0 mm 0.00 in0.0 mm
06:30 PM 34.5°F1.4°C 32.1°F0.1°C 91% 9.2 mph WNW14.8 kmh WNW 11.5 mph18.5 kmh 29.55 in1000.7 mb - 0.00 in0.0 mm 0.00 in0.0 mm
07:00 PM 34.8°F1.6°C 31.3°F-0.4°C 87% 8.1 mph WNW13.0 kmh WNW 10.4 mph16.7 kmh 29.56 in1001.0 mb - 0.00 in0.0 mm 0.00 in0.0 mm
07:30 PM 34.7°F1.5°C 31.0°F-0.6°C 86% 8.1 mph W13.0 kmh W 11.5 mph18.5 kmh 29.57 in1001.4 mb - 0.00 in0.0 mm 0.00 in0.0 mm
08:00 PM 35.4°F1.9°C 30.8°F-0.7°C 83% 8.1 mph W13.0 kmh W 11.5 mph18.5 kmh 29.59 in1002.0 mb - 0.00 in0.0 mm 0.00 in0.0 mm
08:30 PM 35.5°F1.9°C 30.2°F-1.0°C 81% 10.4 mph WNW16.7 kmh WNW 11.5 mph18.5 kmh 29.60 in1002.4 mb - 0.00 in0.0 mm 0.00 in0.0 mm
09:00 PM 35.0°F1.7°C 29.1°F-1.6°C 79% 12.7 mph W20.4 kmh W 16.1 mph25.9 kmh 29.61 in1002.7 mb - 0.00 in0.0 mm 0.00 in0.0 mm
09:30 PM 33.9°F1.1°C 28.7°F-1.8°C 81% 8.1 mph W13.0 kmh W 11.5 mph18.5 kmh 29.63 in1003.4 mb - 0.00 in0.0 mm 0.00 in0.0 mm
10:00 PM 33.5°F0.8°C 28.3°F-2.1°C 81% 5.8 mph W9.3 kmh W 8.1 mph13.0 kmh 29.64 in1003.7 mb - 0.00 in0.0 mm 0.00 in0.0 mm
10:30 PM 32.4°F0.2°C 27.8°F-2.3°C 83% 1.2 mph W1.9 kmh W 2.3 mph3.7 kmh 29.64 in1003.7 mb - 0.00 in0.0 mm 0.00 in0.0 mm
11:00 PM 32.3°F0.2°C 28.3°F-2.1°C 85% 2.3 mph SW3.7 kmh SW 3.5 mph5.6 kmh 29.66 in1004.4 mb - 0.00 in0.0 mm 0.00 in0.0 mm
11:30 PM 33.4°F0.8°C 28.8°F-1.8°C 83% 2.3 mph SE3.7 kmh SE 3.5 mph5.6 kmh 29.66 in1004.4 mb - 0.00 in0.0 mm 0.00 in0.0 mm